createdAt,value
2022-07-26T00:00:14.881Z,99768.31
2022-07-26T00:02:47.928Z,99766.66
2022-07-26T00:05:17.099Z,99764.63
2022-07-26T00:07:44.812Z,99747.13
2022-07-26T00:10:12.757Z,99742.22
2022-07-26T00:12:40.395Z,99749.97
2022-07-26T00:15:10.180Z,99755.63
2022-07-26T00:17:37.864Z,99743.03
2022-07-26T00:20:05.791Z,99755.63
2022-07-26T00:22:35.972Z,99768.66
2022-07-26T00:25:06.509Z,99767.84
2022-07-26T00:27:37.443Z,99769.03
2022-07-26T00:30:07.157Z,99762.53
2022-07-26T00:32:34.563Z,99768.19
2022-07-26T00:35:01.813Z,99768.19
2022-07-26T00:37:30.929Z,99759.66
2022-07-26T00:39:58.183Z,99759.66
2022-07-26T00:42:25.335Z,99759.22
2022-07-26T00:44:52.599Z,99767.00
2022-07-26T00:47:20.020Z,99754.41
2022-07-26T00:49:47.304Z,99765.81
2022-07-26T00:52:14.742Z,99763.78
2022-07-26T00:54:45.987Z,99771.13
2022-07-26T00:57:14.244Z,99764.66
2022-07-26T00:59:41.786Z,99751.19
2022-07-26T01:02:10.316Z,99759.38
2022-07-26T01:04:37.777Z,99747.97
2022-07-26T01:07:15.058Z,99748.78
2022-07-26T01:09:43.767Z,99760.97
2022-07-26T01:12:11.488Z,99767.09
2022-07-26T01:14:38.665Z,99754.84
2022-07-26T01:17:05.970Z,99752.03
2022-07-26T01:19:33.535Z,99757.31
2022-07-26T01:22:01.877Z,99749.69
2022-07-26T01:24:29.283Z,99751.28
2022-07-26T01:26:57.157Z,99761.50
2022-07-26T01:29:34.623Z,99769.22
2022-07-26T01:32:05.225Z,99764.66
2022-07-26T01:34:32.636Z,99766.72
2022-07-26T01:37:00.368Z,99762.63
2022-07-26T01:39:29.237Z,99765.88
2022-07-26T01:41:57.035Z,99766.69
2022-07-26T01:44:24.616Z,99771.56
2022-07-26T01:46:52.079Z,99770.31
2022-07-26T01:49:19.695Z,99771.13
2022-07-26T01:51:47.143Z,99759.31
2022-07-26T01:54:14.679Z,99771.53
2022-07-26T01:56:49.929Z,99769.50
2022-07-26T01:59:17.136Z,99776.03
2022-07-26T02:01:44.470Z,99770.34
2022-07-26T02:04:31.653Z,99778.06
2022-07-26T02:06:58.968Z,99781.34
2022-07-26T02:09:26.093Z,99769.13
2022-07-26T02:11:56.156Z,99773.63
2022-07-26T02:14:25.594Z,99763.00
2022-07-26T02:17:00.060Z,99758.50
2022-07-26T02:19:31.718Z,99765.84
2022-07-26T02:21:59.854Z,99774.41
2022-07-26T02:24:29.219Z,99772.38
2022-07-26T02:26:57.763Z,99779.69
2022-07-26T02:29:25.746Z,99773.97
2022-07-26T02:31:54.975Z,99780.06
2022-07-26T02:34:22.273Z,99764.97
2022-07-26T02:36:50.159Z,99775.56
2022-07-26T02:39:17.675Z,99781.34
2022-07-26T02:41:45.240Z,99780.91
2022-07-26T02:44:12.628Z,99768.72
2022-07-26T02:46:40.078Z,99763.41
2022-07-26T02:49:07.694Z,99757.69
2022-07-26T02:51:34.936Z,99763.81
2022-07-26T02:54:02.373Z,99773.56
2022-07-26T02:56:30.143Z,99766.25
2022-07-26T02:58:58.516Z,99771.97
2022-07-26T03:01:25.804Z,99767.47
2022-07-26T03:03:53.195Z,99776.41
2022-07-26T03:06:20.504Z,99776.41
2022-07-26T03:08:48.705Z,99781.31
2022-07-26T03:11:16.356Z,99782.13
2022-07-26T03:13:43.671Z,99773.19
2022-07-26T03:16:10.964Z,99773.19
2022-07-26T03:18:39.164Z,99779.69
2022-07-26T03:21:06.861Z,99768.72
2022-07-26T03:23:35.146Z,99781.31
2022-07-26T03:26:03.374Z,99785.38
2022-07-26T03:28:31.819Z,99778.44
2022-07-26T03:30:59.461Z,99790.31
2022-07-26T03:33:26.819Z,99784.59
2022-07-26T03:35:54.309Z,99778.44
2022-07-26T03:38:22.355Z,99777.22
2022-07-26T03:40:49.631Z,99780.53
2022-07-26T03:43:20.084Z,99791.91
2022-07-26T03:45:50.929Z,99796.44
2022-07-26T03:48:21.489Z,99798.88
2022-07-26T03:50:48.656Z,99781.84
2022-07-26T03:53:15.908Z,99799.78
2022-07-26T03:56:01.702Z,99796.06
2022-07-26T03:58:28.980Z,99797.69
2022-07-26T04:00:56.193Z,99805.84
2022-07-26T04:03:23.383Z,99807.47
2022-07-26T04:05:50.623Z,99809.47
2022-07-26T04:08:20.065Z,99808.66
2022-07-26T04:10:51.429Z,99814.38
2022-07-26T04:13:20.020Z,99818.44
2022-07-26T04:15:47.632Z,99827.00
2022-07-26T04:18:15.294Z,99829.06
2022-07-26T04:20:43.071Z,99817.25
2022-07-26T04:23:11.583Z,99815.66
2022-07-26T04:25:41.565Z,99821.31
2022-07-26T04:28:10.466Z,99814.78
2022-07-26T04:30:38.924Z,99815.16
2022-07-26T04:33:06.594Z,99802.09
2022-07-26T04:35:35.074Z,99805.34
2022-07-26T04:38:02.702Z,99804.09
2022-07-26T04:40:33.765Z,99802.88
2022-07-26T04:43:02.287Z,99815.53
2022-07-26T04:45:30.306Z,99819.59
2022-07-26T04:47:58.069Z,99816.72
2022-07-26T04:50:28.234Z,99814.25
2022-07-26T04:52:56.379Z,99810.63
2022-07-26T04:55:24.310Z,99809.41
2022-07-26T04:57:51.956Z,99806.06
2022-07-26T05:00:24.262Z,99799.13
2022-07-26T05:02:59.390Z,99805.19
2022-07-26T05:05:29.805Z,99788.47
2022-07-26T05:08:02.973Z,99806.81
2022-07-26T05:10:35.996Z,99797.75
2022-07-26T05:13:06.092Z,99794.44
2022-07-26T05:15:36.786Z,99785.91
2022-07-26T05:18:10.321Z,99803.00
2022-07-26T05:20:39.164Z,99800.97
2022-07-26T05:23:06.870Z,99781.81
2022-07-26T05:25:34.703Z,99796.38
2022-07-26T05:28:02.266Z,99800.47
2022-07-26T05:30:29.947Z,99805.38
2022-07-26T05:32:57.267Z,99787.84
2022-07-26T05:35:24.709Z,99791.50
2022-07-26T05:37:51.989Z,99790.69
2022-07-26T05:40:19.612Z,99800.06
2022-07-26T05:42:49.119Z,99785.38
2022-07-26T05:45:17.305Z,99806.94
2022-07-26T05:47:44.577Z,99805.28
2022-07-26T05:50:12.006Z,99806.53
2022-07-26T05:52:39.796Z,99789.84
2022-07-26T05:55:07.929Z,99809.44
2022-07-26T05:57:35.320Z,99804.94
2022-07-26T06:00:03.295Z,99793.41
2022-07-26T06:02:43.798Z,99795.09
2022-07-26T06:05:13.282Z,99787.28
2022-07-26T06:07:40.516Z,99795.44
2022-07-26T06:10:08.302Z,99792.25
2022-07-26T06:12:36.049Z,99789.31
2022-07-26T06:15:04.252Z,99773.78
2022-07-26T06:17:43.426Z,99769.66
2022-07-26T06:20:11.217Z,99757.88
2022-07-26T06:22:38.505Z,99769.31
2022-07-26T06:25:06.329Z,99781.56
2022-07-26T06:27:33.550Z,99771.84
2022-07-26T06:30:00.801Z,99769.41
2022-07-26T06:32:28.167Z,99777.47
2022-07-26T06:34:55.632Z,99782.78
2022-07-26T06:37:23.208Z,99781.16
2022-07-26T06:39:50.344Z,99792.94
2022-07-26T06:42:17.697Z,99791.91
2022-07-26T06:44:46.408Z,99788.63
2022-07-26T06:47:14.453Z,99793.53
2022-07-26T06:49:42.036Z,99782.13
2022-07-26T06:52:09.255Z,99778.53
2022-07-26T06:54:36.672Z,99785.91
2022-07-26T06:57:06.454Z,99780.16
2022-07-26T06:59:34.103Z,99787.53
2022-07-26T07:02:04.419Z,99794.91
2022-07-26T07:04:33.394Z,99809.97
2022-07-26T07:07:05.134Z,99812.44
2022-07-26T07:09:34.482Z,99802.22
2022-07-26T07:12:10.307Z,99822.59
2022-07-26T07:14:39.374Z,99829.88
2022-07-26T07:17:12.173Z,99811.19
2022-07-26T07:19:43.109Z,99831.09
2022-07-26T07:22:12.533Z,99840.53
2022-07-26T07:24:41.312Z,99854.34
2022-07-26T07:27:10.602Z,99860.13
2022-07-26T07:29:38.913Z,99853.53
2022-07-26T07:32:09.034Z,99862.09
2022-07-26T07:34:48.370Z,99844.97
2022-07-26T07:37:16.904Z,99855.19
2022-07-26T07:39:50.113Z,99858.44
2022-07-26T07:42:19.480Z,99864.16
2022-07-26T07:44:47.370Z,99870.25
2022-07-26T07:47:14.933Z,99845.59
2022-07-26T07:49:42.455Z,99856.19
2022-07-26T07:52:09.774Z,99848.97
2022-07-26T07:54:37.527Z,99862.72
2022-07-26T07:57:05.507Z,99852.94
2022-07-26T07:59:33.152Z,99837.50
2022-07-26T08:02:06.881Z,99853.75
2022-07-26T08:04:34.196Z,99858.66
2022-07-26T08:07:01.431Z,99856.19
2022-07-26T08:09:28.851Z,99853.34
2022-07-26T08:11:56.425Z,99845.19
2022-07-26T08:14:24.483Z,99859.44
2022-07-26T08:16:52.347Z,99850.47
2022-07-26T08:19:19.614Z,99854.53
2022-07-26T08:21:49.870Z,99858.19
2022-07-26T08:24:17.846Z,99862.78
2022-07-26T08:26:45.137Z,99847.31
2022-07-26T08:29:14.744Z,99851.31
2022-07-26T08:31:43.001Z,99844.00
2022-07-26T08:34:12.132Z,99848.53
2022-07-26T08:36:49.597Z,99841.22
2022-07-26T08:39:26.881Z,99835.03
2022-07-26T08:41:54.564Z,99837.97
2022-07-26T08:44:21.940Z,99822.09
2022-07-26T08:46:49.387Z,99819.59
2022-07-26T08:49:16.701Z,99821.22
2022-07-26T08:51:44.816Z,99826.53
2022-07-26T08:54:14.465Z,99799.72
2022-07-26T08:56:49.900Z,99808.69
2022-07-26T08:59:21.323Z,99814.78
2022-07-26T09:02:08.138Z,99789.19
2022-07-26T09:04:44.201Z,99804.69
2022-07-26T09:07:17.568Z,99798.56
2022-07-26T09:10:17.421Z,99792.03
2022-07-26T09:12:45.505Z,99799.34
2022-07-26T09:15:25.295Z,99806.59
2022-07-26T09:17:55.854Z,99791.03
2022-07-26T09:20:32.339Z,99804.00
2022-07-26T09:23:06.979Z,99786.41
2022-07-26T09:25:43.555Z,99786.69
2022-07-26T09:28:30.539Z,99787.81
2022-07-26T09:31:02.292Z,99798.78
2022-07-26T09:33:50.457Z,99796.28
2022-07-26T09:36:19.599Z,99788.84
2022-07-26T09:38:53.456Z,99778.59
2022-07-26T09:41:29.818Z,99779.31
2022-07-26T09:44:01.848Z,99783.78
2022-07-26T09:46:31.091Z,99779.19
2022-07-26T09:49:16.626Z,99775.78
2022-07-26T09:51:47.087Z,99754.03
2022-07-26T09:54:29.687Z,99768.53
2022-07-26T09:56:58.333Z,99767.66
2022-07-26T09:59:29.971Z,99773.28
2022-07-26T10:02:00.654Z,99771.28
2022-07-26T10:04:30.813Z,99761.84
2022-07-26T10:06:58.404Z,99765.69
2022-07-26T10:09:31.678Z,99757.53
2022-07-26T10:12:08.635Z,99770.47
2022-07-26T10:14:45.668Z,99756.41
2022-07-26T10:17:35.683Z,99749.34
2022-07-26T10:20:10.730Z,99732.69
2022-07-26T10:22:50.761Z,99739.22
2022-07-26T10:25:18.209Z,99730.50
2022-07-26T10:27:50.781Z,99729.22
2022-07-26T10:30:22.713Z,99732.28
2022-07-26T10:33:01.695Z,99728.44
2022-07-26T10:35:35.111Z,99743.81
2022-07-26T10:38:24.320Z,99747.03
2022-07-26T10:41:03.578Z,99742.34
2022-07-26T10:43:41.260Z,99732.69
2022-07-26T10:46:31.133Z,99746.22
2022-07-26T10:49:08.963Z,99743.69
2022-07-26T10:51:41.722Z,99734.97
2022-07-26T10:54:12.315Z,99728.00
2022-07-26T10:56:41.021Z,99727.94
2022-07-26T10:59:08.520Z,99727.13
2022-07-26T11:01:43.441Z,99732.75
2022-07-26T11:04:22.210Z,99724.94
2022-07-26T11:06:50.129Z,99720.91
2022-07-26T11:09:20.703Z,99737.97
2022-07-26T11:11:49.076Z,99709.31
2022-07-26T11:14:18.182Z,99735.84
2022-07-26T11:16:52.811Z,99735.94
2022-07-26T11:19:22.181Z,99725.16
2022-07-26T11:22:00.254Z,99723.84
2022-07-26T11:24:28.833Z,99737.59
2022-07-26T11:26:57.263Z,99725.81
2022-07-26T11:29:39.102Z,99717.59
2022-07-26T11:32:25.430Z,99736.19
2022-07-26T11:35:02.997Z,99729.75
2022-07-26T11:37:31.759Z,99726.69
2022-07-26T11:39:59.166Z,99733.19
2022-07-26T11:42:26.659Z,99743.47
2022-07-26T11:44:54.410Z,99735.97
2022-07-26T11:47:25.283Z,99736.13
2022-07-26T11:50:12.853Z,99738.03
2022-07-26T11:52:42.084Z,99732.50
2022-07-26T11:55:10.245Z,99733.19
2022-07-26T11:57:38.356Z,99724.94
2022-07-26T12:00:06.583Z,99722.44
2022-07-26T12:02:39.873Z,99715.06
2022-07-26T12:05:15.554Z,99730.31
2022-07-26T12:08:01.030Z,99707.63
2022-07-26T12:10:29.028Z,99723.16
2022-07-26T12:13:14.014Z,99713.38
2022-07-26T12:15:50.428Z,99706.34
2022-07-26T12:18:26.082Z,99716.25
2022-07-26T12:21:06.043Z,99704.56
2022-07-26T12:23:48.958Z,99722.22
2022-07-26T12:26:23.765Z,99712.06
2022-07-26T12:28:51.712Z,99714.13
2022-07-26T12:31:27.023Z,99700.31
2022-07-26T12:33:54.811Z,99706.78
2022-07-26T12:36:28.468Z,99701.81
2022-07-26T12:38:59.985Z,99699.88
2022-07-26T12:41:39.329Z,99707.50
2022-07-26T12:44:11.872Z,99625.38
2022-07-26T12:46:40.359Z,99682.41
2022-07-26T12:49:07.699Z,99691.31
2022-07-26T12:51:35.160Z,99701.56
2022-07-26T12:54:03.697Z,99695.44
2022-07-26T12:56:31.231Z,99704.50
2022-07-26T12:59:02.297Z,99704.59
2022-07-26T13:01:32.773Z,99709.25
2022-07-26T13:04:01.023Z,99713.25
2022-07-26T13:06:28.534Z,99694.16
2022-07-26T13:08:56.766Z,99698.66
2022-07-26T13:11:25.142Z,99707.25
2022-07-26T13:13:52.977Z,99688.19
2022-07-26T13:16:20.318Z,99672.66
2022-07-26T13:18:47.817Z,99672.72
2022-07-26T13:21:15.051Z,99677.13
2022-07-26T13:23:42.305Z,99673.63
2022-07-26T13:26:09.557Z,99669.94
2022-07-26T13:28:38.195Z,99675.16
2022-07-26T13:31:06.016Z,99675.59
2022-07-26T13:33:33.933Z,99681.75
2022-07-26T13:36:01.275Z,99678.53
2022-07-26T13:38:29.261Z,99681.13
2022-07-26T13:40:56.670Z,99694.69
2022-07-26T13:43:24.703Z,99693.81
2022-07-26T13:45:52.054Z,99691.16
2022-07-26T13:48:19.394Z,99682.47
2022-07-26T13:50:46.906Z,99688.81
2022-07-26T13:53:14.166Z,99691.19
2022-07-26T13:55:41.519Z,99684.09
2022-07-26T13:58:10.156Z,99689.75
2022-07-26T14:00:38.399Z,99689.75
2022-07-26T14:03:06.035Z,99692.09
2022-07-26T14:05:33.830Z,99684.66
2022-07-26T14:08:01.659Z,99671.56
2022-07-26T14:10:28.765Z,99658.47
2022-07-26T14:12:56.127Z,99675.00
2022-07-26T14:15:24.135Z,99689.66
2022-07-26T14:17:52.733Z,99669.34
2022-07-26T14:20:21.679Z,99673.00
2022-07-26T14:22:53.524Z,99677.75
2022-07-26T14:25:22.478Z,99676.56
2022-07-26T14:27:54.329Z,99676.03
2022-07-26T14:30:22.777Z,99669.34
2022-07-26T14:32:50.408Z,99682.31
2022-07-26T14:35:18.066Z,99670.13
2022-07-26T14:37:46.039Z,99670.94
2022-07-26T14:40:17.781Z,99674.88
2022-07-26T14:42:46.605Z,99671.66
2022-07-26T14:45:15.098Z,99681.88
2022-07-26T14:47:43.280Z,99668.69
2022-07-26T14:50:12.323Z,99666.72
2022-07-26T14:52:42.536Z,99661.09
2022-07-26T14:55:11.225Z,99660.78
2022-07-26T14:57:40.359Z,99668.00
2022-07-26T15:00:11.267Z,99660.22
2022-07-26T15:02:43.795Z,99657.19
2022-07-26T15:05:12.980Z,99660.63
2022-07-26T15:07:41.793Z,99667.31
2022-07-26T15:10:11.287Z,99665.00
2022-07-26T15:12:39.265Z,99657.34
2022-07-26T15:15:07.769Z,99655.38
2022-07-26T15:17:35.679Z,99660.31
2022-07-26T15:20:04.063Z,99646.31
2022-07-26T15:22:31.598Z,99640.56
2022-07-26T15:24:58.883Z,99638.44
2022-07-26T15:27:26.189Z,99639.63
2022-07-26T15:29:53.502Z,99656.28
2022-07-26T15:32:21.576Z,99658.78
2022-07-26T15:34:49.187Z,99655.47
2022-07-26T15:37:16.513Z,99654.22
2022-07-26T15:39:46.707Z,99640.06
2022-07-26T15:42:15.364Z,99650.56
2022-07-26T15:44:42.976Z,99656.66
2022-07-26T15:47:11.718Z,99659.59
2022-07-26T15:49:40.283Z,99660.88
2022-07-26T15:52:11.599Z,99660.94
2022-07-26T15:54:41.527Z,99672.88
2022-07-26T15:57:09.527Z,99675.88
2022-07-26T15:59:36.833Z,99676.88
2022-07-26T16:02:08.375Z,99686.53
2022-07-26T16:04:35.978Z,99690.66
2022-07-26T16:07:03.296Z,99684.31
2022-07-26T16:09:30.536Z,99698.34
2022-07-26T16:12:00.488Z,99691.09
2022-07-26T16:14:30.190Z,99688.19
2022-07-26T16:17:00.537Z,99708.75
2022-07-26T16:19:28.729Z,99706.78
2022-07-26T16:21:55.958Z,99703.63
2022-07-26T16:24:23.191Z,99697.16
2022-07-26T16:26:51.425Z,99702.66
2022-07-26T16:29:19.195Z,99700.31
2022-07-26T16:31:47.106Z,99713.06
2022-07-26T16:34:14.769Z,99703.53
2022-07-26T16:36:42.936Z,99700.81
2022-07-26T16:39:10.349Z,99710.72
2022-07-26T16:41:38.093Z,99709.97
2022-07-26T16:44:05.777Z,99714.59
2022-07-26T16:46:33.122Z,99704.50
2022-07-26T16:49:00.431Z,99707.03
2022-07-26T16:51:27.900Z,99720.19
2022-07-26T16:53:55.369Z,99714.72
2022-07-26T16:56:22.639Z,99704.69
2022-07-26T16:58:49.803Z,99719.88
2022-07-26T17:01:17.293Z,99721.00
2022-07-26T17:03:44.605Z,99725.97
2022-07-26T17:06:11.953Z,99735.09
2022-07-26T17:08:41.125Z,99743.28
2022-07-26T17:11:08.542Z,99753.00
2022-07-26T17:13:35.794Z,99747.38
2022-07-26T17:16:03.771Z,99751.09
2022-07-26T17:18:31.135Z,99733.69
2022-07-26T17:20:58.478Z,99736.56
2022-07-26T17:23:25.715Z,99736.19
2022-07-26T17:25:53.498Z,99728.09
2022-07-26T17:28:20.668Z,99713.81
2022-07-26T17:30:47.878Z,99704.59
2022-07-26T17:33:44.467Z,99702.53
2022-07-26T17:36:26.359Z,99712.72
2022-07-26T17:38:54.818Z,99715.97
2022-07-26T17:41:23.484Z,99715.53
2022-07-26T17:44:00.015Z,99734.22
2022-07-26T17:46:27.236Z,99720.72
2022-07-26T17:48:54.607Z,99700.38
2022-07-26T17:51:22.009Z,99710.56
2022-07-26T17:53:53.288Z,99711.38
2022-07-26T17:56:20.764Z,99707.34
2022-07-26T17:58:47.952Z,99722.56
2022-07-26T18:01:16.094Z,99733.94
2022-07-26T18:03:46.781Z,99734.72
2022-07-26T18:06:14.394Z,99739.97
2022-07-26T18:08:42.614Z,99763.91
2022-07-26T18:11:10.957Z,99780.25
2022-07-26T18:13:38.892Z,99778.59
2022-07-26T18:16:06.602Z,99785.09
2022-07-26T18:18:38.774Z,99793.22
2022-07-26T18:21:06.357Z,99771.34
2022-07-26T18:23:36.886Z,99784.72
2022-07-26T18:26:04.577Z,99796.16
2022-07-26T18:28:31.896Z,99798.59
2022-07-26T18:30:59.272Z,99804.31
2022-07-26T18:33:26.596Z,99791.72
2022-07-26T18:35:54.150Z,99790.91
2022-07-26T18:38:21.702Z,99783.59
2022-07-26T18:40:49.525Z,99787.63
2022-07-26T18:43:17.083Z,99785.19
2022-07-26T18:45:44.606Z,99766.47
2022-07-26T18:48:11.926Z,99774.19
2022-07-26T18:50:40.981Z,99784.72
2022-07-26T18:53:10.911Z,99767.19
2022-07-26T18:55:38.160Z,99768.81
2022-07-26T18:58:07.679Z,99771.63
2022-07-26T19:00:38.775Z,99777.75
2022-07-26T19:03:06.310Z,99766.38
2022-07-26T19:05:35.528Z,99764.28
2022-07-26T19:08:04.733Z,99765.81
2022-07-26T19:10:33.013Z,99750.69
2022-07-26T19:13:00.494Z,99750.25
2022-07-26T19:15:28.224Z,99755.16
2022-07-26T19:17:55.895Z,99748.19
2022-07-26T19:20:23.214Z,99750.56
2022-07-26T19:22:51.411Z,99752.16
2022-07-26T19:25:19.173Z,99761.97
2022-07-26T19:27:46.569Z,99776.72
2022-07-26T19:30:14.040Z,99778.44
2022-07-26T19:32:41.527Z,99769.44
2022-07-26T19:35:09.541Z,99773.53
2022-07-26T19:37:36.906Z,99771.09
2022-07-26T19:40:05.690Z,99764.97
2022-07-26T19:42:33.361Z,99767.78
2022-07-26T19:45:00.834Z,99752.28
2022-07-26T19:47:30.062Z,99759.69
2022-07-26T19:49:59.456Z,99757.56
2022-07-26T19:52:26.839Z,99760.06
2022-07-26T19:54:54.416Z,99749.53
2022-07-26T19:57:21.905Z,99747.56
2022-07-26T19:59:49.355Z,99755.44
2022-07-26T20:02:16.932Z,99753.03
2022-07-26T20:04:46.189Z,99748.13
2022-07-26T20:07:19.768Z,99760.38
2022-07-26T20:09:48.440Z,99737.16
2022-07-26T20:12:16.592Z,99769.63
2022-07-26T20:14:44.578Z,99764.69
2022-07-26T20:17:13.469Z,99764.66
2022-07-26T20:19:41.245Z,99761.56
2022-07-26T20:22:08.656Z,99767.25
2022-07-26T20:24:38.137Z,99792.16
2022-07-26T20:27:08.473Z,99787.78
2022-07-26T20:29:35.802Z,99789.03
2022-07-26T20:32:03.473Z,99793.94
2022-07-26T20:34:33.419Z,99795.22
2022-07-26T20:37:02.578Z,99801.75
2022-07-26T20:39:30.215Z,99787.16
2022-07-26T20:41:57.420Z,99787.09
2022-07-26T20:44:28.125Z,99781.88
2022-07-26T20:46:56.812Z,99790.88
2022-07-26T20:49:24.280Z,99788.03
2022-07-26T20:51:52.243Z,99780.34
2022-07-26T20:54:19.730Z,99785.63
2022-07-26T20:56:47.190Z,99791.34
2022-07-26T20:59:15.085Z,99755.56
2022-07-26T21:01:43.936Z,99768.53
2022-07-26T21:04:12.108Z,99766.09
2022-07-26T21:06:39.565Z,99768.53
2022-07-26T21:09:09.264Z,99764.44
2022-07-26T21:11:38.918Z,99771.78
2022-07-26T21:14:06.390Z,99766.06
2022-07-26T21:16:33.719Z,99777.84
2022-07-26T21:19:02.133Z,99775.81
2022-07-26T21:21:29.473Z,99778.25
2022-07-26T21:23:56.681Z,99768.41
2022-07-26T21:26:24.022Z,99767.59
2022-07-26T21:28:51.297Z,99758.69
2022-07-26T21:31:18.637Z,99767.63
2022-07-26T21:33:46.057Z,99779.88
2022-07-26T21:36:14.509Z,99784.34
2022-07-26T21:38:42.057Z,99770.53
2022-07-26T21:41:09.566Z,99781.09
2022-07-26T21:43:40.807Z,99773.38
2022-07-26T21:46:12.501Z,99768.09
2022-07-26T21:48:41.462Z,99778.28
2022-07-26T21:51:08.976Z,99771.78
2022-07-26T21:53:36.569Z,99792.13
2022-07-26T21:56:05.795Z,99777.50
2022-07-26T21:58:36.676Z,99793.81
2022-07-26T22:01:11.212Z,99784.84
2022-07-26T22:03:40.402Z,99780.75
2022-07-26T22:06:08.640Z,99777.13
2022-07-26T22:08:37.041Z,99775.47
2022-07-26T22:11:05.180Z,99767.72
2022-07-26T22:13:32.408Z,99780.75
2022-07-26T22:15:59.919Z,99786.03
2022-07-26T22:18:27.334Z,99780.78
2022-07-26T22:20:55.579Z,99792.16
2022-07-26T22:23:23.396Z,99791.34
2022-07-26T22:25:50.590Z,99785.22
2022-07-26T22:28:18.655Z,99793.38
2022-07-26T22:30:46.817Z,99788.50
2022-07-26T22:33:14.116Z,99778.31
2022-07-26T22:35:41.265Z,99791.75
2022-07-26T22:38:10.535Z,99810.03
2022-07-26T22:40:38.911Z,99808.38
2022-07-26T22:43:06.382Z,99816.09
2022-07-26T22:45:33.949Z,99818.16
2022-07-26T22:48:05.188Z,99801.06
2022-07-26T22:50:33.178Z,99808.78
2022-07-26T22:53:03.577Z,99790.50
2022-07-26T22:55:31.145Z,99804.34
2022-07-26T22:57:58.638Z,99801.91
2022-07-26T23:00:26.253Z,99805.16
2022-07-26T23:02:53.876Z,99794.19
2022-07-26T23:05:21.185Z,99802.72
2022-07-26T23:08:01.758Z,99815.72
2022-07-26T23:10:31.076Z,99820.19
2022-07-26T23:12:58.243Z,99821.78
2022-07-26T23:15:25.541Z,99801.03
2022-07-26T23:17:52.941Z,99814.94
2022-07-26T23:20:20.505Z,99810.06
2022-07-26T23:22:47.771Z,99796.63
2022-07-26T23:25:15.093Z,99824.63
2022-07-26T23:27:42.235Z,99810.78
2022-07-26T23:30:09.702Z,99820.94
2022-07-26T23:32:37.029Z,99812.38
2022-07-26T23:35:05.508Z,99821.28
2022-07-26T23:37:32.817Z,99831.84
2022-07-26T23:40:00.413Z,99823.38
2022-07-26T23:42:27.508Z,99818.84
2022-07-26T23:44:54.895Z,99807.44
2022-07-26T23:47:22.159Z,99798.91
2022-07-26T23:49:49.306Z,99802.53
2022-07-26T23:52:16.806Z,99797.63
2022-07-26T23:54:44.097Z,99799.59
2022-07-26T23:57:11.482Z,99793.47
2022-07-26T23:59:39.004Z,99793.84
